Aeroporto :
LOGIN :

Iscrizione | Disclaimer

   EN    FR    IT 

 










Sommario :    VFR   VFR Marginale   IFR   IFR Intensivo   IFR Molto Intensivo
Visibilità : 
Base nubi : 
>= 8 km
>= 3000ft
5 / 8 km
1000 / 3000 ft
1500m / 5 km
500 / 1000 ft
800 / 1500m
200 / 500 ft
< 800m
< 200 ft
Simboli :   Temporali  Nebbia  Neve Forte  Precipitazioni Forti  Vento > 20 kt
SIGMETs :   Varie  Temporali  Ghiacco  Turbolenza  Onda orograficha  Ceneri Vulcaniche






- Altitudine del aeroporto : 10 ft
- Codice IATA : MOL


ENML - Molde

ULTIMO METAR :
  • 011150Z 24016KT 9999 -SHRA FEW012 BKN022 05/03 Q0996

METARs OBSOLETI :
  • 011120Z 27008KT 9999 -SHRA FEW008 BKN020 05/03 Q0997
  • 011050Z 24016KT 9999 -SHRA FEW013 BKN020 05/03 Q0997
  • 011020Z 26013KT 9999 -RA FEW014 SCT020 BKN030 04/03 Q0998
  • 010950Z 27014KT 9999 -RA FEW014 SCT020 BKN030 05/03 Q0998
  • 010920Z 27014KT 9999 -RA FEW014 SCT020 BKN028 05/03 Q0998

TAF TAF ENML
Valido dal 01 a 12 ore il 01 a 19 ore UTC


011100Z 0112/0119 27012KT 9999 -SHRA FEW015 BKN025
TEMPO 0112/0119 26020G30KT SHRA BKN014CB



MetMap, La meteo Aeronautica in un colpo d'occhio ! - Copyright ORBIFLY Dicembre 2007 - Disclaimer

ORBIFLY MET'MAP TEAM :

Programmazione e sviluppo : Alexandra Zaïnal
Concezione : Baudouin d'Aumeries
Aiuto per la programmazione : Marc-Olivier Méhu
Supporto tecnico e logistico : Manuel Goepfert
Aiuto per la traduzione : Arnaldo La Scala

Contatto : metmap@orbifly.com




FONTI E CREDITI :

   NOAA